sensor_id;sensor_type;location;lat;lon;timestamp;temperature;humidity
32107;DHT22;18622;51.998;10.440;2023-02-19T07:00:38;7.30;99.90
32107;DHT22;18622;51.998;10.440;2023-02-19T07:03:06;7.30;99.90
32107;DHT22;18622;51.998;10.440;2023-02-19T07:05:34;7.30;99.90
32107;DHT22;18622;51.998;10.440;2023-02-19T07:08:02;7.30;99.90
32107;DHT22;18622;51.998;10.440;2023-02-19T07:10:29;7.30;99.90
32107;DHT22;18622;51.998;10.440;2023-02-19T07:12:57;7.30;99.90
32107;DHT22;18622;51.998;10.440;2023-02-19T07:15:25;7.20;99.90
32107;DHT22;18622;51.998;10.440;2023-02-19T07:20:21;7.20;99.90
32107;DHT22;18622;51.998;10.440;2023-02-19T07:22:49;7.10;99.90
32107;DHT22;18622;51.998;10.440;2023-02-19T07:25:17;7.10;99.90
32107;DHT22;18622;51.998;10.440;2023-02-19T07:27:45;7.10;99.90
32107;DHT22;18622;51.998;10.440;2023-02-19T07:30:13;7.00;99.90
32107;DHT22;18622;51.998;10.440;2023-02-19T07:32:41;7.00;99.90
32107;DHT22;18622;51.998;10.440;2023-02-19T07:35:10;6.90;99.90
32107;DHT22;18622;51.998;10.440;2023-02-19T07:37:40;6.90;99.90
32107;DHT22;18622;51.998;10.440;2023-02-19T07:40:07;6.80;99.90
32107;DHT22;18622;51.998;10.440;2023-02-19T07:42:35;6.70;99.90
32107;DHT22;18622;51.998;10.440;2023-02-19T07:45:03;6.70;99.90
32107;DHT22;18622;51.998;10.440;2023-02-19T07:47:31;6.60;99.90
32107;DHT22;18622;51.998;10.440;2023-02-19T07:49:59;6.60;99.90
32107;DHT22;18622;51.998;10.440;2023-02-19T07:52:27;6.60;99.90
32107;DHT22;18622;51.998;10.440;2023-02-19T07:54:54;6.60;99.90
32107;DHT22;18622;51.998;10.440;2023-02-19T07:57:22;6.70;99.90
32107;DHT22;18622;51.998;10.440;2023-02-19T07:59:50;6.70;99.90
32107;DHT22;18622;51.998;10.440;2023-02-19T08:02:19;6.70;99.90
32107;DHT22;18622;51.998;10.440;2023-02-19T08:05:06;6.70;99.90
32107;DHT22;18622;51.998;10.440;2023-02-19T08:07:34;6.70;99.90
32107;DHT22;18622;51.998;10.440;2023-02-19T08:10:03;6.70;99.90
32107;DHT22;18622;51.998;10.440;2023-02-19T08:13:00;6.90;99.90
32107;DHT22;18622;51.998;10.440;2023-02-19T08:18:26;7.10;99.90
32107;DHT22;18622;51.998;10.440;2023-02-19T08:20:55;7.10;99.90
32107;DHT22;18622;51.998;10.440;2023-02-19T08:23:24;7.10;99.90
32107;DHT22;18622;51.998;10.440;2023-02-19T08:25:52;7.10;99.90
32107;DHT22;18622;51.998;10.440;2023-02-19T08:28:20;7.10;99.90
32107;DHT22;18622;51.998;10.440;2023-02-19T08:30:48;7.20;99.90
32107;DHT22;18622;51.998;10.440;2023-02-19T08:33:18;7.20;99.90
32107;DHT22;18622;51.998;10.440;2023-02-19T08:35:46;7.30;99.90
32107;DHT22;18622;51.998;10.440;2023-02-19T08:38:14;7.30;99.90
32107;DHT22;18622;51.998;10.440;2023-02-19T08:40:44;7.40;99.90
32107;DHT22;18622;51.998;10.440;2023-02-19T08:43:14;7.40;99.90
32107;DHT22;18622;51.998;10.440;2023-02-19T08:45:42;7.50;99.90
32107;DHT22;18622;51.998;10.440;2023-02-19T08:48:11;7.50;99.90
32107;DHT22;18622;51.998;10.440;2023-02-19T08:50:39;7.60;99.90
32107;DHT22;18622;51.998;10.440;2023-02-19T08:53:07;7.60;99.90
32107;DHT22;18622;51.998;10.440;2023-02-19T08:55:36;7.60;99.90
32107;DHT22;18622;51.998;10.440;2023-02-19T08:58:04;7.50;99.90
32107;DHT22;18622;51.998;10.440;2023-02-19T09:00:32;7.50;99.90
32107;DHT22;18622;51.998;10.440;2023-02-19T09:03:00;7.50;99.90
32107;DHT22;18622;51.998;10.440;2023-02-19T09:05:28;7.60;99.90
32107;DHT22;18622;51.998;10.440;2023-02-19T09:07:56;7.60;99.90
32107;DHT22;18622;51.998;10.440;2023-02-19T09:10:24;7.70;99.90
32107;DHT22;18622;51.998;10.440;2023-02-19T09:12:51;7.80;99.90
32107;DHT22;18622;51.998;10.440;2023-02-19T09:15:19;7.80;99.90
32107;DHT22;18622;51.998;10.440;2023-02-19T09:17:53;7.90;99.90
32107;DHT22;18622;51.998;10.440;2023-02-19T09:20:21;8.00;99.90
32107;DHT22;18622;51.998;10.440;2023-02-19T09:22:49;8.10;99.90
32107;DHT22;18622;51.998;10.440;2023-02-19T09:25:16;8.20;99.90
32107;DHT22;18622;51.998;10.440;2023-02-19T09:27:44;8.40;99.90
32107;DHT22;18622;51.998;10.440;2023-02-19T09:30:12;8.40;99.90
32107;DHT22;18622;51.998;10.440;2023-02-19T09:32:40;8.40;99.90
32107;DHT22;18622;51.998;10.440;2023-02-19T09:35:08;8.50;99.90
32107;DHT22;18622;51.998;10.440;2023-02-19T09:37:35;8.80;99.90
32107;DHT22;18622;51.998;10.440;2023-02-19T09:40:03;9.00;99.90
32107;DHT22;18622;51.998;10.440;2023-02-19T09:42:32;9.30;99.90
32107;DHT22;18622;51.998;10.440;2023-02-19T09:45:00;9.80;99.90
32107;DHT22;18622;51.998;10.440;2023-02-19T09:47:29;10.40;99.90
32107;DHT22;18622;51.998;10.440;2023-02-19T09:50:04;11.00;99.90
32107;DHT22;18622;51.998;10.440;2023-02-19T09:52:37;11.20;99.90
32107;DHT22;18622;51.998;10.440;2023-02-19T09:55:14;11.40;99.90
32107;DHT22;18622;51.998;10.440;2023-02-19T09:57:43;11.50;99.90
32107;DHT22;18622;51.998;10.440;2023-02-19T10:00:20;11.70;99.90
32107;DHT22;18622;51.998;10.440;2023-02-19T10:03:01;11.90;99.90
32107;DHT22;18622;51.998;10.440;2023-02-19T10:05:26;12.10;99.90
32107;DHT22;18622;51.998;10.440;2023-02-19T10:07:55;12.20;99.90
32107;DHT22;18622;51.998;10.440;2023-02-19T10:10:33;12.20;99.60
32107;DHT22;18622;51.998;10.440;2023-02-19T10:13:20;12.00;97.20
32107;DHT22;18622;51.998;10.440;2023-02-19T10:15:53;11.90;97.60
32107;DHT22;18622;51.998;10.440;2023-02-19T10:18:24;12.20;97.60
32107;DHT22;18622;51.998;10.440;2023-02-19T10:20:55;12.40;97.70
32107;DHT22;18622;51.998;10.440;2023-02-19T10:23:23;12.70;98.00
32107;DHT22;18622;51.998;10.440;2023-02-19T10:25:56;13.30;98.50
32107;DHT22;18622;51.998;10.440;2023-02-19T10:28:30;13.80;98.20
32107;DHT22;18622;51.998;10.440;2023-02-19T10:31:00;14.10;97.70
32107;DHT22;18622;51.998;10.440;2023-02-19T10:33:29;14.20;94.20
32107;DHT22;18622;51.998;10.440;2023-02-19T10:41:12;13.50;94.30
32107;DHT22;18622;51.998;10.440;2023-02-19T10:43:44;13.30;94.30
32107;DHT22;18622;51.998;10.440;2023-02-19T10:46:16;13.00;94.50
32107;DHT22;18622;51.998;10.440;2023-02-19T10:48:54;12.80;94.40
32107;DHT22;18622;51.998;10.440;2023-02-19T10:51:34;12.70;95.20
32107;DHT22;18622;51.998;10.440;2023-02-19T10:54:19;12.60;95.30
32107;DHT22;18622;51.998;10.440;2023-02-19T10:56:48;12.30;94.80
32107;DHT22;18622;51.998;10.440;2023-02-19T11:02:13;11.90;95.30
32107;DHT22;18622;51.998;10.440;2023-02-19T11:04:33;11.80;96.30
32107;DHT22;18622;51.998;10.440;2023-02-19T11:07:14;11.50;95.40
32107;DHT22;18622;51.998;10.440;2023-02-19T11:09:48;11.30;96.00
32107;DHT22;18622;51.998;10.440;2023-02-19T11:12:27;11.00;94.50
32107;DHT22;18622;51.998;10.440;2023-02-19T11:14:55;10.60;95.10
32107;DHT22;18622;51.998;10.440;2023-02-19T11:17:26;10.50;96.30
32107;DHT22;18622;51.998;10.440;2023-02-19T11:19:59;10.90;97.60
32107;DHT22;18622;51.998;10.440;2023-02-19T11:25:05;12.00;94.80
32107;DHT22;18622;51.998;10.440;2023-02-19T11:27:33;12.00;92.90
32107;DHT22;18622;51.998;10.440;2023-02-19T11:35:43;12.00;96.50
32107;DHT22;18622;51.998;10.440;2023-02-19T11:38:13;12.90;96.10
32107;DHT22;18622;51.998;10.440;2023-02-19T11:43:59;13.40;94.40
32107;DHT22;18622;51.998;10.440;2023-02-19T11:54:43;11.10;93.60
32107;DHT22;18622;51.998;10.440;2023-02-19T12:05:33;17.10;88.00
32107;DHT22;18622;51.998;10.440;2023-02-19T12:22:13;19.80;63.50
32107;DHT22;18622;51.998;10.440;2023-02-19T12:25:06;18.90;62.60
32107;DHT22;18622;51.998;10.440;2023-02-19T12:27:40;17.50;65.80
32107;DHT22;18622;51.998;10.440;2023-02-19T12:39:02;19.00;62.30
32107;DHT22;18622;51.998;10.440;2023-02-19T12:41:28;19.10;61.70
32107;DHT22;18622;51.998;10.440;2023-02-19T12:44:00;19.30;60.40
32107;DHT22;18622;51.998;10.440;2023-02-19T12:46:32;19.20;59.00
32107;DHT22;18622;51.998;10.440;2023-02-19T12:49:20;19.40;58.40
32107;DHT22;18622;51.998;10.440;2023-02-19T12:51:56;19.50;58.30
32107;DHT22;18622;51.998;10.440;2023-02-19T12:54:33;19.70;55.80
32107;DHT22;18622;51.998;10.440;2023-02-19T12:57:13;19.10;53.70
32107;DHT22;18622;51.998;10.440;2023-02-19T13:02:29;19.50;55.30
32107;DHT22;18622;51.998;10.440;2023-02-19T13:05:05;20.20;52.80
32107;DHT22;18622;51.998;10.440;2023-02-19T13:07:43;20.00;48.80
32107;DHT22;18622;51.998;10.440;2023-02-19T13:10:24;18.90;50.10
32107;DHT22;18622;51.998;10.440;2023-02-19T13:12:51;18.20;53.00
32107;DHT22;18622;51.998;10.440;2023-02-19T13:15:40;18.40;52.90
32107;DHT22;18622;51.998;10.440;2023-02-19T13:18:24;18.80;53.70
32107;DHT22;18622;51.998;10.440;2023-02-19T13:20:52;19.60;52.00
32107;DHT22;18622;51.998;10.440;2023-02-19T13:23:34;20.30;50.40
32107;DHT22;18622;51.998;10.440;2023-02-19T13:29:24;20.90;47.40
32107;DHT22;18622;51.998;10.440;2023-02-19T13:32:15;20.50;46.70
32107;DHT22;18622;51.998;10.440;2023-02-19T13:37:35;19.30;48.10
32107;DHT22;18622;51.998;10.440;2023-02-19T13:40:18;19.40;48.90
32107;DHT22;18622;51.998;10.440;2023-02-19T13:42:54;19.70;48.50
32107;DHT22;18622;51.998;10.440;2023-02-19T13:45:45;20.10;46.80
32107;DHT22;18622;51.998;10.440;2023-02-19T13:50:30;20.10;45.10
32107;DHT22;18622;51.998;10.440;2023-02-19T13:55:50;20.00;44.50
32107;DHT22;18622;51.998;10.440;2023-02-19T13:58:50;19.80;45.70
32107;DHT22;18622;51.998;10.440;2023-02-19T14:01:09;19.80;44.30
32107;DHT22;18622;51.998;10.440;2023-02-19T14:03:53;19.10;45.60
32107;DHT22;18622;51.998;10.440;2023-02-19T14:06:21;18.40;46.40
32107;DHT22;18622;51.998;10.440;2023-02-19T14:08:56;17.60;48.10
32107;DHT22;18622;51.998;10.440;2023-02-19T14:17:24;16.70;49.40
32107;DHT22;18622;51.998;10.440;2023-02-19T14:22:49;15.80;50.60
32107;DHT22;18622;51.998;10.440;2023-02-19T14:33:29;14.00;54.40
32107;DHT22;18622;51.998;10.440;2023-02-19T14:39:01;13.60;56.70
32107;DHT22;18622;51.998;10.440;2023-02-19T14:41:31;13.60;56.00
32107;DHT22;18622;51.998;10.440;2023-02-19T14:44:00;13.50;56.40
32107;DHT22;18622;51.998;10.440;2023-02-19T14:46:49;13.40;56.00
32107;DHT22;18622;51.998;10.440;2023-02-19T14:49:20;13.40;56.50
32107;DHT22;18622;51.998;10.440;2023-02-19T14:51:50;13.10;58.30
32107;DHT22;18622;51.998;10.440;2023-02-19T14:54:24;12.90;58.70
32107;DHT22;18622;51.998;10.440;2023-02-19T14:56:50;12.60;59.50
32107;DHT22;18622;51.998;10.440;2023-02-19T14:59:22;12.40;60.00
32107;DHT22;18622;51.998;10.440;2023-02-19T15:02:03;12.30;60.90
32107;DHT22;18622;51.998;10.440;2023-02-19T15:04:33;12.50;61.50
32107;DHT22;18622;51.998;10.440;2023-02-19T15:06:59;12.70;61.40
32107;DHT22;18622;51.998;10.440;2023-02-19T15:09:36;13.00;61.60
32107;DHT22;18622;51.998;10.440;2023-02-19T15:12:02;13.40;60.20
32107;DHT22;18622;51.998;10.440;2023-02-19T15:14:31;13.80;58.80
32107;DHT22;18622;51.998;10.440;2023-02-19T15:17:02;14.30;58.80
32107;DHT22;18622;51.998;10.440;2023-02-19T15:19:33;14.60;57.80
32107;DHT22;18622;51.998;10.440;2023-02-19T15:22:03;14.70;57.20
32107;DHT22;18622;51.998;10.440;2023-02-19T15:24:31;14.70;57.40
32107;DHT22;18622;51.998;10.440;2023-02-19T15:26:59;14.80;57.50
32107;DHT22;18622;51.998;10.440;2023-02-19T15:29:27;14.50;57.10
32107;DHT22;18622;51.998;10.440;2023-02-19T15:31:57;14.50;56.80
32107;DHT22;18622;51.998;10.440;2023-02-19T15:34:27;14.20;56.70
32107;DHT22;18622;51.998;10.440;2023-02-19T15:37:00;14.10;58.40
32107;DHT22;18622;51.998;10.440;2023-02-19T15:39:40;14.10;57.70
32107;DHT22;18622;51.998;10.440;2023-02-19T15:42:13;14.20;58.00
32107;DHT22;18622;51.998;10.440;2023-02-19T15:47:27;14.20;57.60
32107;DHT22;18622;51.998;10.440;2023-02-19T15:50:02;13.70;58.30
32107;DHT22;18622;51.998;10.440;2023-02-19T15:52:39;12.90;59.30
32107;DHT22;18622;51.998;10.440;2023-02-19T15:55:20;12.10;61.70
32107;DHT22;18622;51.998;10.440;2023-02-19T15:57:53;11.50;63.10
32107;DHT22;18622;51.998;10.440;2023-02-19T16:00:34;11.00;64.20
32107;DHT22;18622;51.998;10.440;2023-02-19T16:02:51;10.50;65.30
32107;DHT22;18622;51.998;10.440;2023-02-19T16:05:26;10.10;66.00
32107;DHT22;18622;51.998;10.440;2023-02-19T16:08:16;9.80;67.10
32107;DHT22;18622;51.998;10.440;2023-02-19T16:10:55;9.40;67.90
32107;DHT22;18622;51.998;10.440;2023-02-19T16:13:28;9.10;69.10
32107;DHT22;18622;51.998;10.440;2023-02-19T16:16:15;8.80;70.10
32107;DHT22;18622;51.998;10.440;2023-02-19T16:18:44;8.60;71.00
32107;DHT22;18622;51.998;10.440;2023-02-19T16:21:14;8.40;71.80
32107;DHT22;18622;51.998;10.440;2023-02-19T16:23:44;8.20;72.50
32107;DHT22;18622;51.998;10.440;2023-02-19T16:26:13;8.00;73.40
32107;DHT22;18622;51.998;10.440;2023-02-19T16:28:42;7.80;74.10
32107;DHT22;18622;51.998;10.440;2023-02-19T16:31:11;7.70;75.10
32107;DHT22;18622;51.998;10.440;2023-02-19T16:33:47;7.50;75.60
32107;DHT22;18622;51.998;10.440;2023-02-19T16:36:38;7.40;76.80
32107;DHT22;18622;51.998;10.440;2023-02-19T16:39:15;7.20;77.30
32107;DHT22;18622;51.998;10.440;2023-02-19T16:42:00;7.00;77.70
32107;DHT22;18622;51.998;10.440;2023-02-19T16:47:01;6.70;79.00
32107;DHT22;18622;51.998;10.440;2023-02-19T16:49:31;6.60;80.70
32107;DHT22;18622;51.998;10.440;2023-02-19T16:51:59;6.40;81.70
32107;DHT22;18622;51.998;10.440;2023-02-19T16:54:27;6.30;82.10
32107;DHT22;18622;51.998;10.440;2023-02-19T16:56:55;6.20;83.20
32107;DHT22;18622;51.998;10.440;2023-02-19T16:59:23;6.10;84.00
32107;DHT22;18622;51.998;10.440;2023-02-19T17:01:51;6.00;84.80
32107;DHT22;18622;51.998;10.440;2023-02-19T17:04:19;5.80;86.80
32107;DHT22;18622;51.998;10.440;2023-02-19T17:06:46;5.70;87.80
32107;DHT22;18622;51.998;10.440;2023-02-19T17:09:14;5.50;90.00
32107;DHT22;18622;51.998;10.440;2023-02-19T17:11:42;5.50;91.30
32107;DHT22;18622;51.998;10.440;2023-02-19T17:14:10;5.40;92.80
32107;DHT22;18622;51.998;10.440;2023-02-19T17:16:38;5.30;94.00
32107;DHT22;18622;51.998;10.440;2023-02-19T17:19:18;5.10;95.10
32107;DHT22;18622;51.998;10.440;2023-02-19T17:21:43;5.00;96.50
32107;DHT22;18622;51.998;10.440;2023-02-19T17:24:12;4.90;98.00
32107;DHT22;18622;51.998;10.440;2023-02-19T17:26:40;4.90;98.90
32107;DHT22;18622;51.998;10.440;2023-02-19T17:29:11;4.80;99.80
32107;DHT22;18622;51.998;10.440;2023-02-19T17:31:39;4.70;99.90
32107;DHT22;18622;51.998;10.440;2023-02-19T17:34:07;4.60;99.90
32107;DHT22;18622;51.998;10.440;2023-02-19T17:36:35;4.60;99.90
32107;DHT22;18622;51.998;10.440;2023-02-19T17:39:11;4.50;99.90
32107;DHT22;18622;51.998;10.440;2023-02-19T17:41:40;4.40;99.90
32107;DHT22;18622;51.998;10.440;2023-02-19T17:44:08;4.30;99.90
32107;DHT22;18622;51.998;10.440;2023-02-19T17:46:36;4.30;99.90
32107;DHT22;18622;51.998;10.440;2023-02-19T17:49:05;4.20;99.90
32107;DHT22;18622;51.998;10.440;2023-02-19T17:51:33;4.20;99.90
32107;DHT22;18622;51.998;10.440;2023-02-19T17:54:01;4.10;99.90
32107;DHT22;18622;51.998;10.440;2023-02-19T17:56:29;4.10;99.90
32107;DHT22;18622;51.998;10.440;2023-02-19T17:58:58;4.00;99.90
32107;DHT22;18622;51.998;10.440;2023-02-19T18:01:25;4.10;99.90
32107;DHT22;18622;51.998;10.440;2023-02-19T18:03:53;4.10;99.90
32107;DHT22;18622;51.998;10.440;2023-02-19T18:06:21;4.00;99.90
32107;DHT22;18622;51.998;10.440;2023-02-19T18:08:51;3.90;99.90
32107;DHT22;18622;51.998;10.440;2023-02-19T18:11:20;3.90;99.90
32107;DHT22;18622;51.998;10.440;2023-02-19T18:13:49;3.90;99.90
32107;DHT22;18622;51.998;10.440;2023-02-19T18:16:18;3.80;99.90
32107;DHT22;18622;51.998;10.440;2023-02-19T18:18:46;3.80;99.90
32107;DHT22;18622;51.998;10.440;2023-02-19T18:21:13;3.70;99.90
32107;DHT22;18622;51.998;10.440;2023-02-19T18:23:41;3.70;99.90
32107;DHT22;18622;51.998;10.440;2023-02-19T18:26:10;3.70;99.90
32107;DHT22;18622;51.998;10.440;2023-02-19T18:28:39;3.60;99.90
32107;DHT22;18622;51.998;10.440;2023-02-19T18:31:07;3.60;99.90
32107;DHT22;18622;51.998;10.440;2023-02-19T18:33:35;3.60;99.90
32107;DHT22;18622;51.998;10.440;2023-02-19T18:36:08;3.50;99.90
32107;DHT22;18622;51.998;10.440;2023-02-19T18:38:32;3.50;99.90
32107;DHT22;18622;51.998;10.440;2023-02-19T18:41:00;3.50;99.90
32107;DHT22;18622;51.998;10.440;2023-02-19T18:43:28;3.50;99.90
32107;DHT22;18622;51.998;10.440;2023-02-19T18:45:56;3.60;99.90
32107;DHT22;18622;51.998;10.440;2023-02-19T18:48:24;3.60;99.90
32107;DHT22;18622;51.998;10.440;2023-02-19T18:50:51;3.70;99.90
32107;DHT22;18622;51.998;10.440;2023-02-19T18:53:19;3.80;99.90
32107;DHT22;18622;51.998;10.440;2023-02-19T18:55:47;3.90;99.90
32107;DHT22;18622;51.998;10.440;2023-02-19T18:58:17;4.00;99.90
32107;DHT22;18622;51.998;10.440;2023-02-19T19:00:45;4.10;99.90
32107;DHT22;18622;51.998;10.440;2023-02-19T19:03:13;4.20;99.90
32107;DHT22;18622;51.998;10.440;2023-02-19T19:05:41;4.30;99.90
32107;DHT22;18622;51.998;10.440;2023-02-19T19:08:09;4.40;99.90
32107;DHT22;18622;51.998;10.440;2023-02-19T19:10:36;4.50;99.90
32107;DHT22;18622;51.998;10.440;2023-02-19T19:13:04;4.60;99.90
32107;DHT22;18622;51.998;10.440;2023-02-19T19:15:32;4.70;99.90
32107;DHT22;18622;51.998;10.440;2023-02-19T19:18:00;4.80;99.90
32107;DHT22;18622;51.998;10.440;2023-02-19T19:20:28;4.90;99.90
32107;DHT22;18622;51.998;10.440;2023-02-19T19:22:56;5.10;99.90
32107;DHT22;18622;51.998;10.440;2023-02-19T19:25:24;5.20;99.90
32107;DHT22;18622;51.998;10.440;2023-02-19T19:27:53;5.30;99.90
32107;DHT22;18622;51.998;10.440;2023-02-19T19:30:22;5.40;99.90
32107;DHT22;18622;51.998;10.440;2023-02-19T19:32:51;5.50;99.90
32107;DHT22;18622;51.998;10.440;2023-02-19T19:35:20;5.70;99.90
32107;DHT22;18622;51.998;10.440;2023-02-19T19:37:48;5.80;99.90
32107;DHT22;18622;51.998;10.440;2023-02-19T19:40:17;6.00;99.90
32107;DHT22;18622;51.998;10.440;2023-02-19T19:42:45;6.10;99.90
32107;DHT22;18622;51.998;10.440;2023-02-19T19:45:13;6.30;99.90
32107;DHT22;18622;51.998;10.440;2023-02-19T19:47:41;6.40;99.90
32107;DHT22;18622;51.998;10.440;2023-02-19T19:50:09;6.50;99.90
32107;DHT22;18622;51.998;10.440;2023-02-19T19:52:39;6.60;99.90
32107;DHT22;18622;51.998;10.440;2023-02-19T19:55:07;6.70;99.90
32107;DHT22;18622;51.998;10.440;2023-02-19T19:57:35;6.70;99.90
32107;DHT22;18622;51.998;10.440;2023-02-19T20:00:04;6.90;99.90
32107;DHT22;18622;51.998;10.440;2023-02-19T20:02:32;7.00;99.90
32107;DHT22;18622;51.998;10.440;2023-02-19T20:04:59;7.00;99.90
32107;DHT22;18622;51.998;10.440;2023-02-19T20:07:28;7.10;99.90
32107;DHT22;18622;51.998;10.440;2023-02-19T20:09:55;7.10;99.90
32107;DHT22;18622;51.998;10.440;2023-02-19T20:12:23;7.10;99.90
32107;DHT22;18622;51.998;10.440;2023-02-19T20:14:51;7.20;99.90
32107;DHT22;18622;51.998;10.440;2023-02-19T20:17:19;7.20;99.90
32107;DHT22;18622;51.998;10.440;2023-02-19T20:19:47;7.30;99.90
32107;DHT22;18622;51.998;10.440;2023-02-19T20:22:15;7.30;99.90
32107;DHT22;18622;51.998;10.440;2023-02-19T20:24:43;7.30;99.90
32107;DHT22;18622;51.998;10.440;2023-02-19T20:27:10;7.30;99.90
32107;DHT22;18622;51.998;10.440;2023-02-19T20:29:38;7.30;99.90
32107;DHT22;18622;51.998;10.440;2023-02-19T20:32:06;7.40;99.90
32107;DHT22;18622;51.998;10.440;2023-02-19T20:34:34;7.40;99.90
32107;DHT22;18622;51.998;10.440;2023-02-19T20:37:04;7.40;99.90
32107;DHT22;18622;51.998;10.440;2023-02-19T20:39:33;7.40;99.90
32107;DHT22;18622;51.998;10.440;2023-02-19T20:42:01;7.40;99.90
32107;DHT22;18622;51.998;10.440;2023-02-19T20:44:30;7.40;99.90
32107;DHT22;18622;51.998;10.440;2023-02-19T20:46:58;7.40;99.90
32107;DHT22;18622;51.998;10.440;2023-02-19T20:49:28;7.40;99.90
32107;DHT22;18622;51.998;10.440;2023-02-19T20:51:59;7.40;99.90
32107;DHT22;18622;51.998;10.440;2023-02-19T20:54:29;7.40;99.90
32107;DHT22;18622;51.998;10.440;2023-02-19T20:56:59;7.40;99.90
32107;DHT22;18622;51.998;10.440;2023-02-19T20:59:30;7.50;99.90
32107;DHT22;18622;51.998;10.440;2023-02-19T21:02:01;7.50;99.90
32107;DHT22;18622;51.998;10.440;2023-02-19T21:04:29;7.50;99.90
32107;DHT22;18622;51.998;10.440;2023-02-19T21:06:58;7.50;99.90
32107;DHT22;18622;51.998;10.440;2023-02-19T21:09:25;7.50;99.90
32107;DHT22;18622;51.998;10.440;2023-02-19T21:11:54;7.60;99.90
32107;DHT22;18622;51.998;10.440;2023-02-19T21:14:22;7.60;99.90
32107;DHT22;18622;51.998;10.440;2023-02-19T21:16:52;7.60;99.90
32107;DHT22;18622;51.998;10.440;2023-02-19T21:19:20;7.60;99.90
32107;DHT22;18622;51.998;10.440;2023-02-19T21:21:48;7.60;99.90
32107;DHT22;18622;51.998;10.440;2023-02-19T21:24:16;7.60;99.90
32107;DHT22;18622;51.998;10.440;2023-02-19T21:26:44;7.70;99.90
32107;DHT22;18622;51.998;10.440;2023-02-19T21:29:17;7.70;99.90
32107;DHT22;18622;51.998;10.440;2023-02-19T21:31:48;7.70;99.90
32107;DHT22;18622;51.998;10.440;2023-02-19T21:34:19;7.70;99.90
32107;DHT22;18622;51.998;10.440;2023-02-19T21:36:47;7.70;99.90
32107;DHT22;18622;51.998;10.440;2023-02-19T21:39:17;7.70;99.90
32107;DHT22;18622;51.998;10.440;2023-02-19T21:41:44;7.70;99.90
32107;DHT22;18622;51.998;10.440;2023-02-19T21:44:12;7.70;99.90
32107;DHT22;18622;51.998;10.440;2023-02-19T21:46:40;7.70;99.90
32107;DHT22;18622;51.998;10.440;2023-02-19T21:49:08;7.70;99.90
32107;DHT22;18622;51.998;10.440;2023-02-19T21:51:40;7.80;99.90
32107;DHT22;18622;51.998;10.440;2023-02-19T21:54:13;7.80;99.90
32107;DHT22;18622;51.998;10.440;2023-02-19T21:56:41;7.70;99.90
32107;DHT22;18622;51.998;10.440;2023-02-19T21:59:09;7.70;99.90
